Time;durP1;ratioP1;P1;durP2;ratioP2;P2;SDS_P1;SDS_P2;PMS_P1;PMS_P2;Temp;Humidity;BMP_temperature;BMP_pressure;BME280_temperature;BME280_humidity;BME280_pressure;Samples;Min_cycle;Max_cycle;Signal;HPM_P1;HPM_P2
2023/04/05 00:00:53;;;;;;;9.07;6.90;;;2.30;53.50;;;5.72;37.89;98139.44;5059724;28;20090;-45
2023/04/05 00:03:21;;;;;;;9.23;6.63;;;2.30;53.50;;;5.73;37.72;98138.47;5062309;28;20037;-47
2023/04/05 00:05:48;;;;;;;12.13;6.53;;;2.30;53.70;;;5.74;37.62;98131.41;5062298;28;20045;-45
2023/04/05 00:08:22;;;;;;;11.67;5.77;;;2.30;53.40;;;5.72;38.28;98130.69;5059671;28;20410;-45
2023/04/05 00:10:50;;;;;;;;;;;2.30;54.20;;;5.70;38.03;98128.16;5060875;28;20052;-46
2023/04/05 00:13:18;;;;;;;8.10;5.40;;;2.30;55.10;;;5.78;37.59;98122.28;5063145;28;19943;-45
2023/04/05 00:15:47;;;;;;;9.17;5.27;;;2.30;53.90;;;5.79;38.12;98120.47;5062928;28;20051;-45
2023/04/05 00:18:20;;;;;;;8.33;5.87;;;2.30;54.30;;;5.77;38.41;98115.31;5057559;28;20056;-44
2023/04/05 00:20:50;;;;;;;8.63;5.75;;;2.30;54.00;;;5.76;37.51;98116.28;5058711;28;20052;-44
2023/04/05 00:23:19;;;;;;;9.70;5.80;;;2.30;54.00;;;5.75;37.40;98125.16;5061590;28;20040;-44
2023/04/05 00:25:47;;;;;;;8.17;5.83;;;2.30;54.00;;;5.75;38.08;98113.75;5062640;28;20532;-45
2023/04/05 00:28:16;;;;;;;6.93;5.73;;;2.30;54.10;;;5.73;38.46;98108.59;5059734;28;20418;-45
2023/04/05 00:30:44;;;;;;;12.53;6.37;;;2.30;54.60;;;5.76;37.79;98103.06;5057947;28;20053;-45
2023/04/05 00:33:12;;;;;;;10.47;6.10;;;2.30;54.40;;;5.76;38.43;98102.22;5049661;28;20534;-44
2023/04/05 00:35:40;;;;;;;8.57;5.60;;;2.30;54.40;;;5.77;38.73;98102.09;5065586;28;20413;-46
2023/04/05 00:38:08;;;;;;;8.93;5.93;;;2.30;54.40;;;5.76;38.35;98097.78;5057287;28;20049;-45
2023/04/05 00:40:35;;;;;;;8.03;6.13;;;2.30;54.50;;;5.76;38.45;98097.78;5059192;28;20040;-46
2023/04/05 00:43:03;;;;;;;9.87;6.23;;;2.20;54.30;;;5.75;38.29;98095.25;5061164;28;20044;-44
2023/04/05 00:45:31;;;;;;;11.43;6.47;;;2.20;54.10;;;5.72;38.49;98091.91;5062725;28;20043;-46
2023/04/05 00:48:00;;;;;;;6.67;5.73;;;2.20;54.20;;;5.70;38.02;98088.53;5062846;28;20033;-43
2023/04/05 00:50:29;;;;;;;19.67;6.53;;;2.20;54.50;;;5.70;38.86;98093.00;5062873;28;20493;-44
2023/04/05 00:52:57;;;;;;;10.87;6.13;;;2.30;54.70;;;5.68;37.86;98086.94;5060511;28;20055;-45
2023/04/05 00:55:26;;;;;;;10.87;6.00;;;2.30;54.40;;;5.68;38.47;98085.19;5058073;28;20047;-45
2023/04/05 00:57:54;;;;;;;11.47;6.10;;;2.20;54.30;;;5.67;38.31;98075.56;5058383;28;20049;-46
2023/04/05 01:00:23;;;;;;;8.37;5.63;;;2.20;54.00;;;5.67;38.57;98078.19;5062478;28;20436;-45
2023/04/05 01:03:03;;;;;;;7.50;4.87;;;2.20;53.90;;;5.65;38.22;98076.66;5061520;28;20055;-44
2023/04/05 01:05:46;;;;;;;8.20;5.47;;;2.20;54.50;;;5.62;38.81;98080.38;5041259;28;20045;-44
2023/04/05 01:08:31;;;;;;;10.05;5.68;;;2.20;54.30;;;5.62;37.97;98074.22;5050736;28;20037;-45
2023/04/05 01:11:04;;;;;;;8.63;5.20;;;2.10;54.10;;;5.62;38.70;98071.59;5041541;28;20058;-43
2023/04/05 01:13:32;;;;;;;9.27;5.53;;;2.10;54.30;;;5.61;37.89;98067.28;5061932;28;20040;-44
2023/04/05 01:16:00;;;;;;;11.53;5.47;;;2.10;54.00;;;5.60;38.22;98063.78;5060848;28;20051;-45
2023/04/05 01:18:31;;;;;;;8.73;5.30;;;2.10;54.00;;;5.58;38.51;98059.59;5056602;28;20506;-45
2023/04/05 01:21:19;;;;;;;9.10;6.00;;;2.10;54.20;;;5.59;38.72;98053.34;5059123;28;20041;-46
2023/04/05 01:24:31;;;;;;;9.10;5.70;;;2.10;54.70;;;5.52;38.58;98059.13;5060577;28;20044;-43
2023/04/05 01:27:10;;;;;;;9.57;6.10;;;2.00;54.90;;;5.51;38.05;98060.06;5041446;28;20090;-45
2023/04/05 01:30:03;;;;;;;7.50;5.47;;;1.90;55.30;;;5.44;38.69;98058.03;5061442;28;20040;-45
2023/04/05 01:33:12;;;;;;;6.87;5.90;;;1.90;55.20;;;5.41;38.06;98063.53;5041044;28;20056;-45
2023/04/05 01:36:15;;;;;;;9.63;6.40;;;1.90;55.20;;;5.39;38.43;98063.66;5056930;28;20068;-44
2023/04/05 01:38:48;;;;;;;8.87;5.63;;;1.90;55.20;;;5.43;38.40;98056.31;5057109;28;20548;-46
2023/04/05 01:41:15;;;;;;;10.20;6.00;;;1.90;54.80;;;5.40;38.53;98057.41;5044830;28;20048;-45
2023/04/05 01:43:45;;;;;;;11.33;6.50;;;1.90;55.00;;;5.39;38.90;98052.25;5061962;28;20857;-44
2023/04/05 01:46:13;;;;;;;11.93;7.07;;;1.90;55.00;;;5.38;38.37;98040.00;5065801;28;20055;-44
2023/04/05 01:48:41;;;;;;;8.37;5.90;;;1.80;55.20;;;5.36;38.68;98045.41;5066074;28;20048;-44
2023/04/05 01:51:08;;;;;;;10.10;5.83;;;1.80;55.40;;;5.33;38.83;98041.22;5045341;28;20525;-47
2023/04/05 01:53:36;;;;;;;7.60;5.67;;;1.80;55.80;;;5.35;38.85;98045.53;5059972;28;20041;-44
2023/04/05 01:56:04;;;;;;;9.27;6.17;;;1.80;55.50;;;5.31;38.47;98039.63;5064262;28;20218;-44
2023/04/05 01:58:31;;;;;;;8.53;6.37;;;1.80;55.40;;;5.29;38.85;98036.28;5064524;28;20052;-43
2023/04/05 02:00:59;;;;;;;9.17;6.13;;;1.80;55.30;;;5.28;38.35;98039.88;5046402;28;20524;-47
2023/04/05 02:03:26;;;;;;;8.70;5.60;;;1.80;55.40;;;5.26;39.01;98041.81;5061914;28;20041;-45
2023/04/05 02:05:54;;;;;;;8.17;5.40;;;1.80;55.50;;;5.24;38.81;98036.63;5061066;28;20063;-47
2023/04/05 02:08:22;;;;;;;9.47;5.70;;;1.70;55.50;;;5.22;38.55;98037.72;5064147;28;20052;-44
2023/04/05 02:10:52;;;;;;;9.40;5.60;;;1.70;55.60;;;5.18;39.01;98033.66;5065500;28;20505;-43
2023/04/05 02:13:21;;;;;;;10.07;5.33;;;1.60;55.70;;;5.11;39.38;98034.09;5049103;28;20415;-45
2023/04/05 02:15:49;;;;;;;10.10;5.10;;;1.60;55.70;;;5.08;38.58;98026.41;5056948;28;20053;-43
2023/04/05 02:18:29;;;;;;;7.73;4.83;;;1.60;55.70;;;5.08;39.59;98028.22;5052381;28;20056;-43
2023/04/05 02:21:05;;;;;;;7.57;5.73;;;1.60;55.60;;;5.06;39.13;98022.19;5061174;28;20044;-43
2023/04/05 02:23:33;;;;;;;6.97;5.17;;;1.60;56.00;;;5.04;38.90;98027.63;5064742;28;20429;-43
2023/04/05 02:26:01;;;;;;;9.57;5.67;;;1.50;55.80;;;5.00;39.40;98020.03;5063667;28;20055;-45
2023/04/05 02:28:30;;;;;;;8.73;6.23;;;1.40;55.90;;;4.96;39.33;98018.59;5061869;28;20509;-43
2023/04/05 02:30:57;;;;;;;8.50;5.30;;;1.40;56.20;;;4.91;39.62;98018.94;5062504;28;20060;-45
2023/04/05 02:33:26;;;;;;;6.93;5.10;;;1.40;56.10;;;4.90;39.58;98017.25;5063567;28;20045;-46
2023/04/05 02:35:55;;;;;;;7.57;5.23;;;1.40;56.00;;;4.89;39.01;98010.31;5064869;28;20520;-43
2023/04/05 02:38:22;;;;;;;11.83;5.80;;;1.40;56.00;;;4.87;39.34;98014.88;5059530;28;20662;-43
2023/04/05 02:40:50;;;;;;;7.70;5.47;;;1.30;56.60;;;4.83;38.73;98016.06;5059824;28;20056;-43
2023/04/05 02:43:18;;;;;;;8.47;5.57;;;1.30;56.50;;;4.82;39.12;98024.91;5051707;28;20040;-44
2023/04/05 02:45:45;;;;;;;6.83;5.57;;;1.30;56.30;;;4.81;39.61;98025.84;5060083;28;20493;-42
2023/04/05 02:48:17;;;;;;;7.60;5.20;;;1.30;56.50;;;4.79;39.23;98022.50;5062633;28;20053;-45
2023/04/05 02:50:50;;;;;;;9.33;6.03;;;1.30;56.20;;;4.77;39.00;98020.00;5063429;28;20049;-44
2023/04/05 02:53:18;;;;;;;8.77;6.18;;;1.30;56.50;;;4.78;39.30;98020.84;5043405;28;20510;-45
2023/04/05 02:55:58;;;;;;;8.97;4.30;;;1.30;57.00;;;4.76;39.71;98015.66;5059543;28;20065;-46
2023/04/05 02:58:27;;;;;;;8.23;5.77;;;1.20;56.70;;;4.73;39.53;98021.19;5063058;28;20044;-43
2023/04/05 03:00:55;;;;;;;8.53;5.63;;;1.20;56.90;;;4.71;39.37;98020.44;5064001;28;20059;-45
2023/04/05 03:03:29;;;;;;;8.90;5.47;;;1.20;56.90;;;4.69;39.52;98017.94;5059307;28;20045;-44
2023/04/05 03:06:06;;;;;;;7.83;5.87;;;1.20;57.20;;;4.68;39.76;98015.41;5059692;28;20056;-43
2023/04/05 03:08:38;;;;;;;8.73;5.40;;;1.20;57.20;;;4.67;40.30;98011.94;5063825;28;20147;-46
2023/04/05 03:11:06;;;;;;;8.87;6.33;;;1.20;57.20;;;4.67;40.03;98013.72;5062622;28;20055;-45
2023/04/05 03:13:35;;;;;;;8.33;5.97;;;1.20;57.20;;;4.65;39.92;98010.34;5060914;28;20199;-43
2023/04/05 03:16:06;;;;;;;8.20;5.37;;;1.20;57.20;;;4.60;39.79;98008.06;5044110;28;20065;-44
2023/04/05 03:18:38;;;;;;;8.60;5.47;;;1.00;57.40;;;4.57;39.94;98010.09;5063070;28;20052;-44
2023/04/05 03:21:11;;;;;;;9.53;6.87;;;1.00;57.40;;;4.52;39.58;97995.47;5060481;28;20052;-44
2023/04/05 03:23:50;;;;;;;10.33;5.87;;;1.00;57.70;;;4.51;39.71;98008.75;5059044;28;20410;-42
2023/04/05 03:26:24;;;;;;;6.63;4.93;;;1.00;57.60;;;4.49;40.12;98008.03;5051435;28;20552;-44
2023/04/05 03:28:53;;;;;;;7.73;5.33;;;0.90;57.90;;;4.47;39.66;98012.56;5059370;28;20045;-45
2023/04/05 03:31:29;;;;;;;6.37;5.17;;;0.80;57.70;;;4.42;39.81;97998.88;5059415;28;20532;-43
2023/04/05 03:34:00;;;;;;;11.00;5.60;;;0.80;57.90;;;4.40;40.18;98006.06;5060736;28;20061;-45
2023/04/05 03:36:41;;;;;;;9.13;5.10;;;0.80;58.50;;;4.36;39.92;98005.44;5062310;28;20241;-45
2023/04/05 03:39:23;;;;;;;10.60;5.63;;;0.80;58.30;;;4.30;39.97;98001.50;5056455;28;20131;-44
2023/04/05 03:41:50;;;;;;;10.37;5.73;;;0.70;58.80;;;4.27;40.43;98000.88;5058693;28;20528;-44
2023/04/05 03:44:18;;;;;;;7.77;5.70;;;0.70;59.80;;;4.25;40.72;98003.63;5045228;28;20044;-43
2023/04/05 03:46:46;;;;;;;9.30;5.40;;;0.70;58.80;;;4.26;40.89;97999.19;5045864;28;20051;-43
2023/04/05 03:49:15;;;;;;;10.60;5.87;;;0.70;58.90;;;4.26;40.81;98004.44;5060145;28;20052;-43
2023/04/05 03:51:43;;;;;;;9.27;5.63;;;0.80;59.20;;;4.25;40.63;98008.06;5058857;28;20052;-45
2023/04/05 03:54:11;;;;;;;7.53;5.43;;;0.70;59.00;;;4.27;41.02;98003.50;5075126;28;20053;-43
2023/04/05 03:56:39;;;;;;;7.80;5.30;;;0.80;59.30;;;4.27;40.30;98004.34;5061943;28;20044;-46
2023/04/05 03:59:12;;;;;;;9.70;5.67;;;0.80;58.70;;;4.29;40.46;98001.59;5059805;28;20093;-45
2023/04/05 04:01:40;;;;;;;9.67;5.50;;;0.80;59.10;;;4.26;40.51;98005.28;5042178;28;20510;-45
2023/04/05 04:04:08;;;;;;;7.80;5.30;;;0.70;58.70;;;4.22;40.44;98003.81;5059829;28;20052;-43
2023/04/05 04:06:36;;;;;;;9.40;5.90;;;0.60;59.20;;;4.19;40.66;98001.44;5061888;28;20398;-45
2023/04/05 04:09:04;;;;;;;12.47;5.40;;;0.60;59.10;;;4.16;40.23;98014.00;5060848;28;20555;-45
2023/04/05 04:11:32;;;;;;;10.53;7.17;;;0.50;59.50;;;4.07;41.04;98008.44;5057728;28;20430;-44
2023/04/05 04:14:03;;;;;;;8.93;6.63;;;0.40;59.70;;;4.03;40.57;98009.63;5058158;28;20399;-44
2023/04/05 04:16:46;;;;;;;9.87;6.77;;;0.40;60.40;;;4.05;41.02;98004.22;5061978;28;20543;-45
2023/04/05 04:19:38;;;;;;;9.50;5.70;;;0.50;60.10;;;4.06;41.36;98003.28;5046184;28;20127;-44
2023/04/05 04:22:12;;;;;;;9.77;6.13;;;0.50;60.40;;;4.05;41.11;97996.31;5061346;28;20041;-45
2023/04/05 04:24:49;;;;;;;8.00;5.47;;;0.50;59.90;;;4.03;40.86;97999.09;5062803;28;20045;-44
2023/04/05 04:27:49;;;;;;;9.37;5.53;;;0.40;59.90;;;3.94;40.92;98000.56;5050687;28;20052;-44
2023/04/05 04:30:37;;;;;;;8.10;5.70;;;0.30;60.50;;;3.91;40.81;98000.78;5049060;28;20090;-43
2023/04/05 04:33:23;;;;;;;12.03;6.37;;;0.30;60.50;;;3.88;41.23;97990.50;5054146;28;20052;-45
2023/04/05 04:36:12;;;;;;;9.17;6.53;;;0.30;60.30;;;3.84;40.98;97986.41;5031956;28;20598;-43
2023/04/05 04:39:04;;;;;;;10.57;6.50;;;0.20;60.50;;;3.86;40.97;97991.56;5032261;28;20059;-44
2023/04/05 04:41:53;;;;;;;10.63;6.17;;;0.20;60.20;;;3.86;41.07;97991.56;5057147;28;20045;-45
2023/04/05 04:44:41;;;;;;;14.80;6.73;;;0.30;60.30;;;3.83;40.88;97994.41;5061493;28;20056;-43
2023/04/05 04:47:29;;;;;;;11.93;7.87;;;0.30;60.40;;;3.84;41.09;98003.97;5057730;28;20398;-43
2023/04/05 04:50:17;;;;;;;11.27;7.50;;;0.30;60.00;;;3.82;41.15;98003.25;5062157;28;20068;-44
2023/04/05 04:52:46;;;;;;;12.30;7.80;;;0.30;60.20;;;3.75;41.07;98005.50;5062200;28;20063;-45
2023/04/05 04:55:14;;;;;;;12.20;8.53;;;0.10;60.80;;;3.75;41.46;98008.13;5060628;28;20044;-42
2023/04/05 04:57:45;;;;;;;19.33;8.60;;;0.20;60.90;;;3.74;41.20;98006.44;5038689;28;20060;-42
2023/04/05 05:00:14;;;;;;;14.47;8.00;;;0.10;61.60;;;3.74;41.35;98014.31;5059219;28;20049;-42
2023/04/05 05:02:42;;;;;;;13.87;8.50;;;0.10;61.20;;;3.74;41.06;98020.47;5060867;28;20202;-44
2023/04/05 05:05:13;;;;;;;10.27;7.20;;;0.10;61.70;;;3.72;41.98;98016.22;5058921;28;20055;-43
2023/04/05 05:07:41;;;;;;;9.50;7.60;;;0.10;61.90;;;3.71;41.56;98017.19;5059163;28;20048;-43
2023/04/05 05:10:10;;;;;;;10.73;7.63;;;0.10;61.90;;;3.72;41.70;98009.19;5059839;28;20045;-43
2023/04/05 05:12:38;;;;;;;51.60;20.27;;;0.10;62.10;;;3.70;41.86;98008.47;5059977;28;20055;-44
2023/04/05 05:15:06;;;;;;;61.27;25.10;;;0.10;62.60;;;3.68;41.94;98010.38;5061794;28;20100;-45
2023/04/05 05:17:34;;;;;;;53.53;20.63;;;0.10;62.50;;;3.69;41.82;98011.19;5058963;28;20059;-44
2023/04/05 05:20:09;;;;;;;22.73;11.83;;;0.10;62.10;;;3.73;41.99;98018.75;5058918;28;20064;-43
2023/04/05 05:22:39;;;;;;;27.43;11.47;;;0.20;61.70;;;3.77;41.88;98008.03;5060642;28;20049;-43
2023/04/05 05:25:08;;;;;;;20.40;10.43;;;0.30;62.10;;;3.83;41.81;98015.47;5061444;28;20048;-44
2023/04/05 05:27:36;;;;;;;22.20;11.53;;;0.30;61.30;;;3.84;41.74;98014.50;5057573;28;20513;-44
2023/04/05 05:30:04;;;;;;;19.83;10.07;;;0.30;61.40;;;3.86;42.20;98010.00;5058274;28;20413;-44
2023/04/05 05:32:32;;;;;;;16.63;8.90;;;0.30;61.80;;;3.88;41.92;98010.72;5059619;28;20060;-43
2023/04/05 05:35:00;;;;;;;14.40;8.57;;;0.40;61.60;;;3.89;41.43;98010.59;5058582;28;20048;-44
2023/04/05 05:37:32;;;;;;;18.27;7.70;;;0.40;61.20;;;3.94;41.67;98007.66;5058823;28;20048;-44
2023/04/05 05:40:00;;;;;;;11.80;7.90;;;0.50;61.10;;;3.99;41.65;98013.41;5058907;28;20045;-45
2023/04/05 05:42:27;;;;;;;12.67;6.93;;;0.50;61.10;;;4.02;42.04;98009.72;5060620;28;20045;-44
2023/04/05 05:44:55;;;;;;;10.93;6.63;;;0.60;61.50;;;4.05;42.17;98013.00;5062064;28;20045;-45
2023/04/05 05:47:22;;;;;;;10.47;6.00;;;0.60;61.30;;;4.09;42.23;98003.91;5059400;28;20045;-46
2023/04/05 05:49:50;;;;;;;8.37;6.20;;;0.60;61.00;;;4.14;42.33;98000.91;5058684;28;20502;-45
2023/04/05 05:52:18;;;;;;;11.20;6.83;;;0.70;61.00;;;4.20;41.47;98012.81;5060473;28;20053;-46
2023/04/05 05:54:46;;;;;;;9.43;5.87;;;0.80;60.60;;;4.24;42.05;98007.19;5061557;28;20294;-48
2023/04/05 05:57:13;;;;;;;9.97;6.20;;;0.90;60.60;;;4.25;42.25;98014.16;5060743;28;20068;-45
2023/04/05 05:59:41;;;;;;;9.63;6.23;;;0.90;60.80;;;4.29;41.77;98010.34;5057348;28;20060;-47
2023/04/05 06:02:09;;;;;;;9.10;5.80;;;0.90;60.40;;;4.32;42.22;98012.75;5059157;28;20044;-45
2023/04/05 06:04:37;;;;;;;9.47;5.90;;;1.00;60.30;;;4.38;42.09;98021.16;5060646;28;20044;-45
2023/04/05 06:07:04;;;;;;;9.63;6.03;;;1.00;60.10;;;4.42;41.71;98020.84;5061466;28;20049;-45
2023/04/05 06:09:34;;;;;;;11.90;6.30;;;1.10;60.20;;;4.47;42.25;98023.94;5058416;28;20048;-45
2023/04/05 06:12:01;;;;;;;7.10;5.40;;;1.10;60.20;;;4.51;41.84;98020.13;5057968;28;20048;-47
2023/04/05 06:14:30;;;;;;;8.93;5.73;;;1.10;60.10;;;4.54;41.80;98022.56;5061213;28;20417;-45
2023/04/05 06:16:57;;;;;;;8.57;6.03;;;1.20;60.00;;;4.58;42.12;98020.53;5062030;28;20044;-46
2023/04/05 06:19:25;;;;;;;6.53;5.30;;;1.20;60.00;;;4.63;41.87;98017.53;5060934;28;20541;-47
2023/04/05 06:21:53;;;;;;;8.10;6.17;;;1.20;60.30;;;4.67;42.25;98029.53;5060233;28;20049;-45
2023/04/05 06:24:21;;;;;;;11.00;7.03;;;1.20;60.50;;;4.68;42.53;98026.78;5062086;28;20044;-45
2023/04/05 06:26:50;;;;;;;9.93;6.60;;;1.30;60.70;;;4.72;41.80;98030.88;5065345;28;20107;-47
2023/04/05 06:29:18;;;;;;;10.97;6.40;;;1.30;60.70;;;4.76;41.93;98031.50;5063642;28;20052;-46
2023/04/05 06:31:47;;;;;;;11.50;6.57;;;1.40;60.80;;;4.79;42.05;98039.19;5061459;28;20057;-48
2023/04/05 06:34:14;;;;;;;12.87;7.40;;;1.40;60.80;;;4.82;41.99;98032.84;5062937;28;20045;-47
2023/04/05 06:36:42;;;;;;;11.70;6.83;;;1.50;60.40;;;4.87;41.88;98033.34;5061692;28;20045;-46
2023/04/05 06:39:09;;;;;;;9.17;6.37;;;1.40;60.40;;;4.89;41.98;98034.06;5058177;28;20056;-46
2023/04/05 06:41:37;;;;;;;14.83;7.00;;;1.50;60.70;;;4.92;42.25;98031.16;5065100;28;20048;-45
2023/04/05 06:44:05;;;;;;;11.73;6.33;;;1.60;60.50;;;4.95;41.66;98028.31;5064519;28;20052;-47
2023/04/05 06:46:32;;;;;;;12.90;6.63;;;1.60;60.20;;;4.99;42.63;98028.94;5064904;28;20417;-48
2023/04/05 06:49:00;;;;;;;9.70;6.83;;;1.50;60.90;;;5.03;42.13;98035.66;5065397;28;20052;-47
2023/04/05 06:51:30;;;;;;;10.23;7.23;;;1.60;60.60;;;5.02;42.42;98033.94;5061941;28;20041;-46
2023/04/05 06:53:58;;;;;;;12.10;7.20;;;1.60;60.50;;;4.99;42.03;98034.19;5059584;28;20057;-47
2023/04/05 06:56:26;;;;;;;11.07;6.13;;;1.60;59.50;;;4.99;41.41;98032.41;5062858;28;20048;-48
2023/04/05 06:58:54;;;;;;;11.77;6.93;;;1.60;59.10;;;5.01;42.06;98032.28;5064587;28;20281;-43
2023/04/05 07:01:23;;;;;;;9.47;6.17;;;1.60;59.20;;;5.04;41.54;98034.66;5062673;28;20353;-43
2023/04/05 07:03:52;;;;;;;11.03;7.07;;;1.60;59.40;;;5.09;42.09;98037.81;5061279;28;20049;-43
2023/04/05 07:06:22;;;;;;;11.40;7.60;;;1.70;59.50;;;5.12;41.58;98038.44;5062987;28;20517;-44
2023/04/05 07:08:50;;;;;;;11.13;6.73;;;1.80;59.50;;;5.20;41.68;98042.28;5064386;28;20045;-44
2023/04/05 07:11:18;;;;;;;13.10;6.43;;;1.80;60.10;;;5.24;42.07;98044.56;5062616;28;20036;-44
2023/04/05 07:13:45;;;;;;;16.30;7.97;;;1.90;59.20;;;5.28;41.67;98045.16;5060934;28;20045;-43
2023/04/05 07:16:13;;;;;;;12.83;7.70;;;2.00;59.20;;;5.32;42.00;98044.81;5061707;28;20052;-45
2023/04/05 07:18:40;;;;;;;12.17;7.23;;;2.00;59.10;;;5.38;41.78;98040.00;5064004;28;20049;-45
2023/04/05 07:21:08;;;;;;;15.13;7.90;;;2.00;59.20;;;5.40;41.74;98038.94;5064523;28;20052;-45
2023/04/05 07:23:35;;;;;;;12.30;6.77;;;2.00;59.10;;;5.45;41.55;98034.13;5052651;28;20413;-44
2023/04/05 07:26:03;;;;;;;11.57;6.33;;;2.10;59.10;;;5.48;41.52;98038.34;5060819;28;20425;-44
2023/04/05 07:28:34;;;;;;;13.57;7.30;;;2.10;59.20;;;5.51;41.60;98038.94;5063840;28;20501;-44
2023/04/05 07:31:02;;;;;;;13.53;6.40;;;2.10;59.10;;;5.54;41.93;98037.84;5064020;28;20421;-46
2023/04/05 07:33:30;;;;;;;14.20;7.17;;;2.20;58.90;;;5.58;41.40;98041.94;5060344;28;20528;-43
2023/04/05 07:35:58;;;;;;;10.20;7.10;;;2.20;58.70;;;5.62;40.98;98035.47;5063392;28;20403;-45
2023/04/05 07:38:26;;;;;;;8.30;6.33;;;2.30;58.10;;;5.67;41.26;98037.75;5062670;28;20044;-43
2023/04/05 07:40:54;;;;;;;9.73;6.20;;;2.30;58.00;;;5.71;40.86;98040.00;5061331;28;20045;-44
2023/04/05 07:43:23;;;;;;;10.60;6.20;;;2.30;58.20;;;5.75;41.86;98039.78;5061478;28;20045;-45
2023/04/05 07:45:52;;;;;;;10.17;5.60;;;2.40;57.80;;;5.79;40.79;98039.41;5064401;28;20049;-45
2023/04/05 07:48:19;;;;;;;9.40;6.60;;;2.40;57.00;;;5.85;40.65;98041.56;5062620;28;20437;-44
2023/04/05 07:50:47;;;;;;;12.83;7.20;;;2.50;57.10;;;5.84;41.43;98039.88;5060956;28;20041;-44
2023/04/05 07:53:15;;;;;;;16.03;6.03;;;2.50;57.60;;;5.88;41.57;98036.03;5067158;28;20055;-44
2023/04/05 07:55:43;;;;;;;8.70;6.43;;;2.50;57.60;;;5.94;41.09;98045.28;5060512;28;20498;-46
2023/04/05 07:58:12;;;;;;;12.17;6.50;;;2.60;57.80;;;5.99;41.52;98043.16;5060067;28;20518;-43
2023/04/05 08:00:40;;;;;;;9.43;6.33;;;2.60;58.00;;;6.05;40.77;98047.94;5063160;28;20058;-43
2023/04/05 08:03:07;;;;;;;7.90;5.70;;;2.70;57.90;;;6.11;40.85;98050.09;5062281;28;20039;-45
2023/04/05 08:05:35;;;;;;;10.27;6.73;;;2.70;57.80;;;6.17;40.79;98056.69;5058000;28;20045;-44
2023/04/05 08:08:02;;;;;;;10.27;6.50;;;2.80;57.80;;;6.23;41.58;98053.53;5059008;28;20299;-44
2023/04/05 08:10:30;;;;;;;11.17;6.63;;;2.90;57.80;;;6.30;40.50;98051.22;5061272;28;20041;-45
2023/04/05 08:12:58;;;;;;;12.40;6.83;;;3.00;57.50;;;6.36;41.74;98048.13;5061258;28;20059;-43
2023/04/05 08:15:25;;;;;;;9.50;6.73;;;3.00;57.10;;;6.40;41.64;98052.19;5059663;28;20048;-45
2023/04/05 08:17:53;;;;;;;14.43;7.90;;;3.10;57.40;;;6.46;41.44;98048.19;5058531;28;20041;-45
2023/04/05 08:20:21;;;;;;;11.80;6.93;;;3.20;57.30;;;6.51;40.74;98048.66;5059743;28;20056;-45
2023/04/05 08:22:48;;;;;;;8.03;6.43;;;3.30;56.80;;;6.53;40.99;98048.53;5056270;28;20048;-45
2023/04/05 08:25:16;;;;;;;10.20;6.80;;;3.30;56.30;;;6.61;41.03;98040.78;5058743;28;20041;-45
2023/04/05 08:27:43;;;;;;;10.53;6.60;;;3.40;55.90;;;6.67;40.36;98046.44;5062933;28;20052;-44
2023/04/05 08:30:11;;;;;;;10.67;6.77;;;3.50;55.60;;;6.74;40.30;98052.03;5063460;28;20044;-44
2023/04/05 08:32:38;;;;;;;10.20;6.60;;;3.50;55.00;;;6.81;40.10;98052.41;5033779;28;20422;-45
2023/04/05 08:35:06;;;;;;;9.70;6.30;;;3.60;55.10;;;6.85;40.32;98051.16;5058680;28;20045;-45
2023/04/05 08:37:34;;;;;;;11.50;5.70;;;3.60;54.90;;;6.90;40.42;98049.81;5061515;28;20041;-44
2023/04/05 08:40:04;;;;;;;10.80;6.43;;;3.70;54.70;;;6.95;39.89;98052.06;5063105;28;20041;-44
2023/04/05 08:42:39;;;;;;;10.57;6.53;;;3.80;54.30;;;7.03;39.47;98056.72;5059816;28;20040;-43
2023/04/05 08:45:13;;;;;;;12.43;5.97;;;3.80;53.70;;;7.08;40.29;98049.25;5059772;28;20041;-45
2023/04/05 08:47:41;;;;;;;10.32;6.40;;;3.90;54.10;;;7.13;39.91;98041.72;5050841;28;20064;-45
2023/04/05 08:50:10;;;;;;;10.50;6.10;;;3.90;53.80;;;7.18;39.93;98036.91;5033535;28;20044;-45
2023/04/05 08:52:38;;;;;;;8.03;6.50;;;4.00;53.50;;;7.23;39.37;98049.75;5044374;28;20403;-44
2023/04/05 08:55:07;;;;;;;7.50;5.67;;;4.00;53.40;;;7.23;39.37;98040.00;5063123;28;20055;-44
2023/04/05 08:57:38;;;;;;;7.80;6.03;;;4.10;53.40;;;7.28;39.48;98042.25;5058979;28;20048;-43
2023/04/05 09:00:08;;;;;;;8.73;6.17;;;4.20;53.00;;;7.35;39.37;98038.13;5057165;28;20049;-45
2023/04/05 09:02:37;;;;;;;6.03;5.17;;;4.20;52.50;;;7.42;38.79;98038.41;5061440;28;20056;-44
2023/04/05 09:05:09;;;;;;;6.97;5.53;;;4.30;52.20;;;7.49;38.93;98042.22;5062083;28;20051;-45
2023/04/05 09:07:38;;;;;;;9.43;5.67;;;4.40;50.80;;;7.52;38.28;98038.47;5058634;28;20414;-45
2023/04/05 09:10:07;;;;;;;16.13;5.97;;;4.40;50.50;;;7.55;38.33;98039.03;5057609;28;20037;-46
2023/04/05 09:12:35;;;;;;;7.07;5.30;;;4.40;50.60;;;7.61;37.98;98037.69;5060421;28;20071;-46
2023/04/05 09:15:04;;;;;;;8.43;5.10;;;4.50;49.70;;;7.65;37.29;98039.09;5062843;28;20053;-49
2023/04/05 09:17:32;;;;;;;6.03;4.73;;;4.50;48.00;;;7.69;37.17;98038.69;5059107;28;20053;-46
2023/04/05 09:20:00;;;;;;;7.00;5.23;;;4.60;48.10;;;7.72;37.23;98042.88;5058177;28;20050;-48
2023/04/05 09:22:27;;;;;;;9.03;5.60;;;4.60;47.30;;;7.76;36.96;98039.00;5060864;28;20048;-46
2023/04/05 09:24:55;;;;;;;8.53;5.70;;;4.60;47.80;;;7.82;36.72;98045.56;5062328;28;20040;-47
2023/04/05 09:27:24;;;;;;;8.17;6.03;;;4.70;47.60;;;7.89;36.72;98036.13;5059477;28;20453;-44
2023/04/05 09:29:57;;;;;;;9.33;5.60;;;4.80;47.40;;;7.91;36.44;98038.63;5055230;28;20052;-44
2023/04/05 09:32:27;;;;;;;9.17;5.33;;;4.70;46.30;;;7.94;36.77;98041.00;5061159;28;20044;-45
2023/04/05 09:34:59;;;;;;;5.80;4.93;;;4.80;47.20;;;7.97;36.59;98040.72;5058953;28;20498;-44
2023/04/05 09:37:33;;;;;;;8.30;5.63;;;4.80;46.20;;;8.04;36.22;98036.56;5043283;28;20052;-45
2023/04/05 09:40:03;;;;;;;7.43;5.13;;;4.90;46.40;;;8.08;36.37;98032.66;5058560;28;20061;-45
2023/04/05 09:42:46;;;;;;;6.97;5.27;;;5.00;47.00;;;8.13;35.49;98040.22;5059065;28;20156;-44
2023/04/05 09:45:17;;;;;;;7.67;4.97;;;5.00;43.00;;;8.11;35.40;98036.88;5058045;28;20044;-44
2023/04/05 09:47:56;;;;;;;7.33;5.90;;;5.00;44.50;;;8.11;35.45;98028.91;5050706;28;20048;-46
2023/04/05 09:50:24;;;;;;;6.73;4.73;;;4.90;43.90;;;8.14;35.04;98029.47;5059958;28;20044;-44
2023/04/05 09:53:14;;;;;;;7.63;5.37;;;5.00;44.90;;;8.19;35.55;98031.72;5063343;28;20052;-45
2023/04/05 09:55:43;;;;;;;6.07;4.80;;;5.00;42.90;;;8.27;34.81;98029.22;5054848;28;20045;-49
2023/04/05 09:58:21;;;;;;;6.20;4.47;;;5.10;40.60;;;8.28;34.76;98034.38;5053305;28;20045;-45
2023/04/05 10:00:52;;;;;;;9.13;5.60;;;5.20;43.40;;;8.35;34.58;98026.72;5054355;28;20045;-43
2023/04/05 10:03:29;;;;;;;11.27;5.00;;;5.30;43.90;;;8.44;34.79;98025.09;5063877;28;20509;-43
2023/04/05 10:05:57;;;;;;;9.93;5.20;;;5.40;43.90;;;8.49;34.95;98014.88;5066069;28;20390;-44
2023/04/05 10:08:25;;;;;;;9.10;5.67;;;5.50;43.80;;;8.56;34.82;98013.34;5065113;28;20044;-48
2023/04/05 10:10:55;;;;;;;12.93;5.77;;;5.50;43.50;;;8.60;34.47;98017.41;5062139;28;20045;-45
2023/04/05 10:13:22;;;;;;;7.33;5.03;;;5.50;43.10;;;8.64;33.57;98018.78;5042390;28;20064;-44
2023/04/05 10:15:52;;;;;;;8.23;5.60;;;5.60;42.20;;;8.61;33.87;98013.78;5064902;28;20048;-45
2023/04/05 10:18:28;;;;;;;8.37;5.40;;;5.60;41.00;;;8.61;33.98;98013.78;5064499;28;20623;-43
2023/04/05 10:20:58;;;;;;;11.60;5.50;;;5.60;41.60;;;8.64;33.76;98008.19;5062583;28;20052;-43
2023/04/05 10:23:33;;;;;;;10.00;5.00;;;5.60;42.20;;;8.69;33.50;98001.63;5061684;28;20044;-44
2023/04/05 10:26:09;;;;;;;9.53;4.90;;;5.60;41.40;;;8.76;33.76;98013.34;5064724;28;20041;-44
2023/04/05 10:28:46;;;;;;;7.77;5.00;;;5.70;42.50;;;8.81;33.78;98006.63;5061977;28;20056;-44
2023/04/05 10:31:39;;;;;;;7.30;4.90;;;5.70;41.80;;;8.85;34.16;98002.72;5061879;28;20426;-43
2023/04/05 10:34:28;;;;;;;9.23;6.20;;;5.80;40.70;;;8.95;33.78;98005.34;5055695;28;20052;-43
2023/04/05 10:37:02;;;;;;;7.07;5.50;;;5.90;41.00;;;8.87;32.95;98002.59;5060876;28;20391;-44
2023/04/05 10:39:45;;;;;;;6.72;5.85;;;5.80;41.10;;;8.88;33.38;97998.97;5062213;28;20045;-43
2023/04/05 10:42:28;;;;;;;10.23;5.50;;;5.80;40.50;;;8.90;33.62;97993.50;5063264;28;20426;-48
2023/04/05 10:45:05;;;;;;;9.17;6.10;;;5.80;40.80;;;8.94;33.47;97997.56;5054894;28;20044;-45
2023/04/05 10:47:41;;;;;;;8.07;5.90;;;5.90;41.30;;;8.98;33.67;97994.47;5063553;28;20441;-44